createdAt,value
2018-07-06T00:00:58.531Z,17.10
2018-07-06T00:03:44.948Z,17.10
2018-07-06T00:06:31.331Z,17.10
2018-07-06T00:09:17.529Z,17.20
2018-07-06T00:12:03.770Z,17.10
2018-07-06T00:14:50.102Z,17.10
2018-07-06T00:17:36.353Z,17.10
2018-07-06T00:20:22.591Z,17.00
2018-07-06T00:23:08.977Z,17.00
2018-07-06T00:25:55.325Z,17.00
2018-07-06T00:28:41.540Z,16.90
2018-07-06T00:31:27.814Z,17.00
2018-07-06T00:34:14.207Z,17.00
2018-07-06T00:37:00.642Z,17.00
2018-07-06T00:39:47.044Z,16.90
2018-07-06T00:42:33.435Z,16.90
2018-07-06T00:45:19.776Z,16.90
2018-07-06T00:48:06.093Z,16.90
2018-07-06T00:50:52.528Z,16.90
2018-07-06T00:53:39.037Z,16.90
2018-07-06T00:56:25.324Z,16.90
2018-07-06T00:59:11.679Z,16.80
2018-07-06T01:01:58.030Z,16.80
2018-07-06T01:04:44.370Z,16.80
2018-07-06T01:07:30.710Z,16.70
2018-07-06T01:10:17.214Z,16.70
2018-07-06T01:13:03.887Z,16.70
2018-07-06T01:15:50.054Z,16.70
2018-07-06T01:18:36.394Z,16.70
2018-07-06T01:21:22.628Z,16.60
2018-07-06T01:24:08.983Z,16.60
2018-07-06T01:26:55.463Z,16.60
2018-07-06T01:29:41.790Z,16.50
2018-07-06T01:32:28.092Z,16.60
2018-07-06T01:35:14.365Z,16.60
2018-07-06T01:38:00.821Z,16.60
2018-07-06T01:40:47.096Z,16.60
2018-07-06T01:43:33.504Z,16.60
2018-07-06T01:46:19.906Z,16.60
2018-07-06T01:49:06.271Z,16.60
2018-07-06T01:51:52.804Z,16.60
2018-07-06T01:54:39.146Z,16.60
2018-07-06T02:00:05.759Z,16.60
2018-07-06T02:02:52.017Z,16.60
2018-07-06T02:05:38.360Z,16.60
2018-07-06T02:08:24.553Z,16.60
2018-07-06T02:11:10.996Z,16.70
2018-07-06T02:13:57.390Z,16.70
2018-07-06T02:16:43.779Z,16.70
2018-07-06T02:19:29.988Z,16.70
2018-07-06T02:22:16.340Z,16.70
2018-07-06T02:25:02.580Z,16.60
2018-07-06T02:27:48.936Z,16.70
2018-07-06T02:30:35.200Z,16.60
2018-07-06T02:33:21.423Z,16.60
2018-07-06T02:36:07.672Z,16.70
2018-07-06T02:38:54.120Z,16.60
2018-07-06T02:41:40.765Z,16.60
2018-07-06T02:44:27.001Z,16.70
2018-07-06T02:47:13.386Z,16.70
2018-07-06T02:49:59.634Z,16.70
2018-07-06T02:52:46.069Z,16.70
2018-07-06T02:55:32.683Z,16.70
2018-07-06T02:58:19.042Z,16.80
2018-07-06T03:01:05.282Z,16.80
2018-07-06T03:03:51.661Z,16.80
2018-07-06T03:06:37.998Z,16.80
2018-07-06T03:09:24.341Z,16.80
2018-07-06T03:12:10.649Z,16.80
2018-07-06T03:14:57.483Z,16.80
2018-07-06T03:17:43.660Z,16.80
2018-07-06T03:20:29.789Z,16.80
2018-07-06T03:23:16.094Z,16.80
2018-07-06T03:26:02.587Z,16.80
2018-07-06T03:28:49.071Z,17.30
2018-07-06T03:31:35.264Z,16.80
2018-07-06T03:34:21.530Z,16.80
2018-07-06T03:37:07.788Z,16.80
2018-07-06T03:39:54.239Z,16.80
2018-07-06T03:42:40.542Z,16.80
2018-07-06T03:45:27.071Z,16.80
2018-07-06T03:48:13.528Z,16.80
2018-07-06T03:50:59.907Z,16.80
2018-07-06T03:53:46.718Z,16.80
2018-07-06T03:59:13.696Z,16.80
2018-07-06T04:02:00.088Z,16.80
2018-07-06T04:04:46.374Z,16.80
2018-07-06T04:07:32.627Z,16.90
2018-07-06T04:12:59.390Z,16.90
2018-07-06T04:15:45.738Z,16.90
2018-07-06T04:18:32.266Z,16.90
2018-07-06T04:21:18.365Z,16.80
2018-07-06T04:24:04.626Z,16.90
2018-07-06T04:26:50.915Z,16.90
2018-07-06T04:29:37.278Z,16.90
2018-07-06T04:35:04.040Z,17.00
2018-07-06T04:37:50.265Z,17.00
2018-07-06T04:40:36.491Z,17.00
2018-07-06T04:43:22.609Z,17.00
2018-07-06T04:48:48.907Z,17.10
2018-07-06T04:51:35.259Z,17.10
2018-07-06T04:54:21.574Z,17.10
2018-07-06T04:57:07.970Z,17.20
2018-07-06T04:59:54.395Z,17.20
2018-07-06T05:02:40.693Z,17.20
2018-07-06T05:05:26.858Z,17.30
2018-07-06T05:08:13.031Z,17.30
2018-07-06T05:10:59.334Z,17.30
2018-07-06T05:13:45.667Z,17.30
2018-07-06T05:16:32.052Z,17.30
2018-07-06T05:19:18.527Z,17.40
2018-07-06T05:22:04.831Z,17.30
2018-07-06T05:24:51.186Z,17.30
2018-07-06T05:27:37.659Z,17.40
2018-07-06T05:30:23.967Z,17.40
2018-07-06T05:33:10.202Z,17.50
2018-07-06T05:35:56.624Z,17.50
2018-07-06T05:38:42.977Z,17.50
2018-07-06T05:41:29.390Z,17.50
2018-07-06T05:44:15.726Z,17.60
2018-07-06T05:47:02.146Z,17.60
2018-07-06T05:49:49.468Z,17.70
2018-07-06T05:52:35.767Z,17.80
2018-07-06T05:55:21.942Z,17.80
2018-07-06T05:58:08.258Z,17.80
2018-07-06T06:00:57.271Z,17.90
2018-07-06T06:03:44.254Z,17.90
2018-07-06T06:06:31.270Z,18.00
2018-07-06T06:08:59.332Z,17.90
2018-07-06T06:11:29.145Z,17.90
2018-07-06T06:13:58.380Z,17.90
2018-07-06T06:16:27.764Z,17.90
2018-07-06T06:18:57.064Z,18.00
2018-07-06T06:21:26.412Z,18.00
2018-07-06T06:23:55.647Z,18.00
2018-07-06T06:26:30.078Z,18.00
2018-07-06T06:28:59.683Z,18.00
2018-07-06T06:31:30.234Z,18.10
2018-07-06T06:34:02.647Z,18.00
2018-07-06T06:36:32.541Z,17.90
2018-07-06T06:39:02.279Z,17.90
2018-07-06T06:41:31.626Z,17.90
2018-07-06T06:44:00.926Z,17.90
2018-07-06T06:46:30.353Z,17.80
2018-07-06T06:48:59.684Z,17.80
2018-07-06T06:51:29.056Z,17.90
2018-07-06T06:53:58.540Z,18.00
2018-07-06T06:56:27.973Z,18.00
2018-07-06T06:58:57.496Z,18.00
2018-07-06T07:01:26.907Z,18.10
2018-07-06T07:03:56.338Z,18.10
2018-07-06T07:06:25.725Z,18.10
2018-07-06T07:08:55.178Z,18.10
2018-07-06T07:11:24.486Z,18.20
2018-07-06T07:13:54.097Z,18.20
2018-07-06T07:16:23.435Z,16.70
2018-07-06T07:18:52.984Z,18.20
2018-07-06T07:21:22.491Z,18.20
2018-07-06T07:23:52.071Z,18.30
2018-07-06T07:26:21.522Z,18.40
2018-07-06T07:31:21.123Z,18.50
2018-07-06T07:33:50.801Z,18.50
2018-07-06T07:36:20.327Z,18.50
2018-07-06T07:38:49.926Z,18.60
2018-07-06T07:41:19.416Z,18.60
2018-07-06T07:43:48.983Z,18.70
2018-07-06T07:46:18.371Z,18.90
2018-07-06T07:48:47.750Z,19.00
2018-07-06T07:52:06.205Z,19.10
2018-07-06T07:54:42.107Z,19.30
2018-07-06T07:57:11.573Z,19.40
2018-07-06T07:59:41.710Z,19.40
2018-07-06T08:02:11.047Z,19.50
2018-07-06T08:04:40.852Z,19.40
2018-07-06T08:07:10.390Z,19.40
2018-07-06T08:09:39.769Z,19.30
2018-07-06T08:12:09.176Z,19.30
2018-07-06T08:14:38.551Z,19.30
2018-07-06T08:17:07.896Z,19.30
2018-07-06T08:19:37.236Z,19.40
2018-07-06T08:22:06.603Z,19.50
2018-07-06T08:24:35.905Z,19.60
2018-07-06T08:27:05.322Z,19.70
2018-07-06T08:29:34.683Z,19.80
2018-07-06T08:32:04.205Z,19.80
2018-07-06T08:34:50.445Z,19.80
2018-07-06T08:38:05.325Z,19.80
2018-07-06T08:40:34.847Z,20.10
2018-07-06T08:43:05.358Z,20.40
2018-07-06T08:48:04.698Z,20.80
2018-07-06T08:53:03.367Z,21.70
2018-07-06T08:55:32.898Z,22.10
2018-07-06T08:58:02.207Z,22.50
2018-07-06T09:00:31.516Z,22.80
2018-07-06T09:03:00.882Z,22.60
2018-07-06T09:05:30.326Z,22.30
2018-07-06T09:07:59.723Z,22.30
2018-07-06T09:12:58.272Z,22.50
2018-07-06T09:15:27.622Z,22.30
2018-07-06T09:17:56.935Z,22.30
2018-07-06T09:20:26.218Z,22.30
2018-07-06T09:22:55.901Z,23.00
2018-07-06T09:25:25.473Z,23.50
2018-07-06T09:27:54.872Z,23.70
2018-07-06T09:30:24.405Z,23.80
2018-07-06T09:32:53.936Z,24.00
2018-07-06T09:35:23.507Z,24.10
2018-07-06T09:37:52.911Z,23.90
2018-07-06T09:40:22.354Z,23.80
2018-07-06T09:42:51.854Z,23.70
2018-07-06T09:45:21.171Z,23.90
2018-07-06T09:47:50.533Z,23.90
2018-07-06T09:50:19.892Z,24.00
2018-07-06T09:55:18.529Z,24.50
2018-07-06T10:00:23.293Z,24.90
2018-07-06T10:02:52.760Z,25.40
2018-07-06T10:05:22.205Z,25.60
2018-07-06T10:07:51.666Z,25.20
2018-07-06T10:10:21.047Z,24.90
2018-07-06T10:12:50.454Z,25.00
2018-07-06T10:15:19.992Z,25.20
2018-07-06T10:17:49.383Z,25.60
2018-07-06T10:20:18.680Z,25.40
2018-07-06T10:22:48.116Z,25.30
2018-07-06T10:25:17.484Z,25.30
2018-07-06T10:28:00.122Z,25.00
2018-07-06T10:30:40.804Z,25.10
2018-07-06T10:33:10.458Z,24.70
2018-07-06T10:35:39.783Z,24.80
2018-07-06T10:38:09.319Z,24.90
2018-07-06T10:43:08.152Z,25.80
2018-07-06T10:45:37.631Z,25.60
2018-07-06T10:48:07.208Z,25.30
2018-07-06T10:50:36.705Z,25.30
2018-07-06T10:53:06.177Z,25.30
2018-07-06T10:55:35.568Z,25.50
2018-07-06T10:58:05.045Z,25.70
2018-07-06T11:00:34.494Z,25.80
2018-07-06T11:03:03.835Z,25.80
2018-07-06T11:05:33.254Z,26.00
2018-07-06T11:08:02.908Z,26.20
2018-07-06T11:10:32.310Z,26.20
2018-07-06T11:22:18.900Z,26.30
2018-07-06T11:24:48.316Z,26.40
2018-07-06T11:27:17.627Z,26.50
2018-07-06T11:29:47.123Z,26.30
2018-07-06T11:32:16.655Z,26.40
2018-07-06T11:34:46.070Z,26.40
2018-07-06T11:37:15.445Z,26.20
2018-07-06T11:39:44.764Z,26.10
2018-07-06T11:42:14.132Z,26.00
2018-07-06T11:47:12.777Z,27.00
2018-07-06T11:49:42.220Z,27.30
2018-07-06T11:52:11.551Z,26.80
2018-07-06T11:54:41.017Z,26.70
2018-07-06T11:57:10.364Z,26.80
2018-07-06T11:59:39.678Z,26.60
2018-07-06T12:02:09.300Z,26.10
2018-07-06T12:04:38.876Z,25.90
2018-07-06T12:07:08.240Z,25.60
2018-07-06T12:12:06.758Z,25.20
2018-07-06T12:14:36.159Z,25.20
2018-07-06T12:17:05.637Z,25.00
2018-07-06T12:22:04.117Z,24.20
2018-07-06T12:24:33.503Z,23.80
2018-07-06T12:27:02.831Z,23.60
2018-07-06T12:29:32.284Z,23.60
2018-07-06T12:32:01.664Z,23.80
2018-07-06T12:34:31.099Z,24.90
2018-07-06T12:37:00.630Z,24.10
2018-07-06T12:39:29.987Z,24.60
2018-07-06T12:44:28.768Z,25.60
2018-07-06T12:46:58.114Z,25.80
2018-07-06T12:51:56.725Z,25.50
2018-07-06T12:54:25.903Z,25.50
2018-07-06T12:56:55.305Z,25.60
2018-07-06T12:59:24.590Z,25.50
2018-07-06T13:01:54.054Z,25.70
2018-07-06T13:04:23.478Z,26.00
2018-07-06T13:06:53.220Z,26.20
2018-07-06T13:09:22.875Z,26.40
2018-07-06T13:11:52.224Z,26.50
2018-07-06T13:14:21.692Z,26.70
2018-07-06T13:16:51.254Z,26.40
2018-07-06T13:19:29.961Z,26.20
2018-07-06T13:21:59.287Z,26.00
2018-07-06T13:26:57.740Z,26.40
2018-07-06T13:29:27.127Z,26.60
2018-07-06T13:31:56.434Z,26.60
2018-07-06T13:34:25.748Z,27.00
2018-07-06T13:36:55.095Z,27.50
2018-07-06T13:41:53.540Z,28.10
2018-07-06T13:44:22.983Z,28.00
2018-07-06T13:46:52.384Z,27.40
2018-07-06T13:49:21.739Z,27.20
2018-07-06T13:51:51.204Z,27.00
2018-07-06T13:54:20.620Z,26.70
2018-07-06T13:56:50.044Z,26.60
2018-07-06T13:59:19.563Z,26.30
2018-07-06T14:01:48.939Z,26.20
2018-07-06T14:04:18.392Z,26.00
2018-07-06T14:06:47.818Z,26.10
2018-07-06T14:09:17.137Z,26.50
2018-07-06T14:11:46.638Z,26.60
2018-07-06T14:14:17.776Z,26.70
2018-07-06T14:16:47.171Z,26.90
2018-07-06T14:19:16.467Z,27.40
2018-07-06T14:21:45.770Z,27.50
2018-07-06T14:24:15.252Z,27.10
2018-07-06T14:26:44.621Z,26.60
2018-07-06T14:29:14.211Z,26.30
2018-07-06T14:31:43.580Z,26.00
2018-07-06T14:34:12.963Z,25.80
2018-07-06T14:36:42.425Z,25.70
2018-07-06T14:39:11.965Z,25.80
2018-07-06T14:41:41.346Z,25.90
2018-07-06T14:44:10.793Z,26.20
2018-07-06T14:46:40.219Z,26.50
2018-07-06T14:49:09.679Z,26.70
2018-07-06T14:51:39.093Z,26.60
2018-07-06T14:54:08.493Z,26.30
2018-07-06T14:56:37.860Z,26.00
2018-07-06T14:59:07.495Z,25.60
2018-07-06T15:01:37.013Z,25.30
2018-07-06T15:04:06.615Z,25.30
2018-07-06T15:06:37.066Z,25.40
2018-07-06T15:09:07.268Z,25.40
2018-07-06T15:11:36.517Z,25.50
2018-07-06T15:14:06.243Z,25.70
2018-07-06T15:16:35.791Z,26.00
2018-07-06T15:19:05.674Z,26.30
2018-07-06T15:21:35.061Z,26.70
2018-07-06T15:24:04.494Z,27.00
2018-07-06T15:26:33.782Z,27.40
2018-07-06T15:31:32.020Z,27.50
2018-07-06T15:34:01.349Z,27.30
2018-07-06T15:36:30.569Z,26.90
2018-07-06T15:38:59.923Z,26.60
2018-07-06T15:41:29.220Z,26.30
2018-07-06T15:43:58.515Z,26.20
2018-07-06T15:46:27.791Z,26.40
2018-07-06T15:48:57.038Z,26.60
2018-07-06T15:51:26.411Z,26.40
2018-07-06T15:53:55.762Z,26.20
2018-07-06T15:56:25.049Z,26.10
2018-07-06T15:58:54.445Z,25.70
2018-07-06T16:01:23.697Z,25.50
2018-07-06T16:03:52.885Z,25.10
2018-07-06T16:06:22.175Z,24.80
2018-07-06T16:08:51.458Z,24.50
2018-07-06T16:11:20.747Z,24.10
2018-07-06T16:13:50.085Z,23.80
2018-07-06T16:16:19.438Z,23.70
2018-07-06T16:18:48.818Z,23.60
2018-07-06T16:21:18.014Z,23.50
2018-07-06T16:23:47.365Z,23.30
2018-07-06T16:26:16.608Z,23.20
2018-07-06T16:28:45.896Z,23.20
2018-07-06T16:31:15.115Z,23.20
2018-07-06T16:33:44.338Z,23.10
2018-07-06T16:36:13.600Z,23.10
2018-07-06T16:38:42.827Z,23.00
2018-07-06T16:41:12.039Z,23.10
2018-07-06T16:43:41.311Z,23.10
2018-07-06T16:49:33.965Z,23.00
2018-07-06T16:52:03.181Z,23.00
2018-07-06T16:54:32.518Z,23.00
2018-07-06T16:57:01.758Z,23.00
2018-07-06T16:59:31.066Z,23.00
2018-07-06T17:02:00.382Z,22.90
2018-07-06T17:04:29.561Z,23.00
2018-07-06T17:06:58.803Z,23.00
2018-07-06T17:09:28.189Z,22.90
2018-07-06T17:11:57.459Z,22.70
2018-07-06T17:14:26.691Z,22.80
2018-07-06T17:16:55.965Z,23.10
2018-07-06T17:19:25.201Z,23.40
2018-07-06T17:21:54.392Z,23.60
2018-07-06T17:24:23.581Z,23.60
2018-07-06T17:26:53.258Z,23.50
2018-07-06T17:29:22.409Z,23.40
2018-07-06T17:31:51.762Z,23.40
2018-07-06T17:34:21.039Z,23.40
2018-07-06T17:36:50.315Z,23.40
2018-07-06T17:40:05.101Z,23.50
2018-07-06T17:43:26.482Z,23.40
2018-07-06T17:49:01.638Z,23.40
2018-07-06T17:51:33.356Z,23.30
2018-07-06T17:54:02.735Z,23.20
2018-07-06T17:56:32.037Z,23.10
2018-07-06T17:59:01.365Z,23.00
2018-07-06T18:01:30.645Z,22.80
2018-07-06T18:03:59.883Z,22.70
2018-07-06T18:06:29.135Z,22.60
2018-07-06T18:08:58.487Z,22.50
2018-07-06T18:11:27.815Z,22.30
2018-07-06T18:13:57.041Z,22.30
2018-07-06T18:16:27.262Z,22.20
2018-07-06T18:19:26.793Z,22.20
2018-07-06T18:21:56.148Z,22.10
2018-07-06T18:24:25.452Z,22.00
2018-07-06T18:26:54.779Z,21.90
2018-07-06T18:29:23.976Z,21.90
2018-07-06T18:31:53.412Z,21.80
2018-07-06T18:34:22.727Z,21.70
2018-07-06T18:36:52.090Z,21.70
2018-07-06T18:39:21.370Z,21.60
2018-07-06T18:41:50.795Z,21.50
2018-07-06T18:44:20.069Z,21.40
2018-07-06T18:46:49.340Z,21.20
2018-07-06T18:49:18.586Z,21.00
2018-07-06T18:51:47.882Z,20.70
2018-07-06T18:56:46.138Z,20.40
2018-07-06T18:59:15.426Z,20.30
2018-07-06T19:01:44.685Z,20.20
2018-07-06T19:04:13.901Z,20.00
2018-07-06T19:06:43.166Z,19.80
2018-07-06T19:09:12.403Z,19.60
2018-07-06T19:11:41.606Z,19.60
2018-07-06T19:14:10.885Z,19.50
2018-07-06T19:16:40.150Z,19.40
2018-07-06T19:19:09.394Z,19.40
2018-07-06T19:24:07.738Z,19.20
2018-07-06T19:29:06.053Z,19.00
2018-07-06T19:31:35.405Z,18.80
2018-07-06T19:34:04.698Z,18.70
2018-07-06T19:36:33.992Z,18.60
2018-07-06T19:39:03.451Z,18.60
2018-07-06T19:41:32.704Z,18.50
2018-07-06T19:44:01.992Z,18.40
2018-07-06T19:46:31.337Z,18.40
2018-07-06T19:49:00.654Z,18.40
2018-07-06T19:51:29.933Z,18.40
2018-07-06T19:53:59.218Z,18.30
2018-07-06T19:56:28.457Z,18.40
2018-07-06T19:58:57.820Z,18.30
2018-07-06T20:01:27.122Z,18.20
2018-07-06T20:03:56.463Z,18.10
2018-07-06T20:06:25.678Z,18.10
2018-07-06T20:08:55.056Z,18.00
2018-07-06T20:11:24.314Z,18.00
2018-07-06T20:13:53.820Z,17.90
2018-07-06T20:16:23.066Z,17.90
2018-07-06T20:18:52.316Z,17.90
2018-07-06T20:21:21.573Z,17.90
2018-07-06T20:23:50.911Z,17.80
2018-07-06T20:26:20.496Z,17.80
2018-07-06T20:28:49.829Z,17.80
2018-07-06T20:31:19.218Z,17.80
2018-07-06T20:33:48.466Z,17.80
2018-07-06T20:36:17.875Z,17.70
2018-07-06T20:38:47.260Z,17.60
2018-07-06T20:41:16.611Z,17.60
2018-07-06T20:43:45.884Z,17.60
2018-07-06T20:46:15.275Z,17.60
2018-07-06T20:48:44.585Z,17.60
2018-07-06T20:51:13.820Z,17.60
2018-07-06T20:53:43.138Z,17.50
2018-07-06T20:56:12.436Z,17.50
2018-07-06T20:58:41.698Z,17.50
2018-07-06T21:01:11.011Z,17.40
2018-07-06T21:03:40.477Z,17.40
2018-07-06T21:06:09.718Z,17.40
2018-07-06T21:08:39.016Z,17.30
2018-07-06T21:11:08.385Z,17.30
2018-07-06T21:13:37.696Z,17.30
2018-07-06T21:16:07.107Z,17.20
2018-07-06T21:18:36.230Z,17.20
2018-07-06T21:21:05.572Z,17.10
2018-07-06T21:23:34.751Z,17.10
2018-07-06T21:26:04.028Z,17.10
2018-07-06T21:28:33.216Z,17.10
2018-07-06T21:31:02.510Z,17.00
2018-07-06T21:33:31.732Z,17.00
2018-07-06T21:36:01.080Z,17.00
2018-07-06T21:38:30.242Z,16.90
2018-07-06T21:40:59.520Z,16.90
2018-07-06T21:43:28.768Z,16.80
2018-07-06T21:45:58.157Z,16.80
2018-07-06T21:48:27.387Z,16.70
2018-07-06T21:50:56.685Z,16.70
2018-07-06T21:53:25.922Z,16.70
2018-07-06T21:55:55.250Z,16.70
2018-07-06T21:58:24.513Z,16.60
2018-07-06T22:00:53.798Z,16.60
2018-07-06T22:03:23.051Z,16.60
2018-07-06T22:05:52.890Z,16.50
2018-07-06T22:08:22.181Z,16.50
2018-07-06T22:10:51.521Z,16.50
2018-07-06T22:13:20.757Z,16.40
2018-07-06T22:15:49.958Z,16.40
2018-07-06T22:18:20.058Z,16.40
2018-07-06T22:20:49.819Z,16.30
2018-07-06T22:23:19.095Z,16.30
2018-07-06T22:25:48.317Z,16.20
2018-07-06T22:28:17.552Z,16.30
2018-07-06T22:30:46.758Z,16.20
2018-07-06T22:33:15.991Z,16.20
2018-07-06T22:35:45.187Z,16.20
2018-07-06T22:38:14.398Z,16.20
2018-07-06T22:40:43.598Z,16.20
2018-07-06T22:43:12.841Z,16.30
2018-07-06T22:45:42.023Z,16.20
2018-07-06T22:48:11.264Z,16.20
2018-07-06T22:50:40.451Z,16.20
2018-07-06T22:53:09.673Z,16.10
2018-07-06T22:55:38.869Z,16.10
2018-07-06T22:58:08.175Z,16.00
2018-07-06T23:00:37.435Z,16.00
2018-07-06T23:03:06.818Z,16.00
2018-07-06T23:05:36.089Z,15.90
2018-07-06T23:08:05.303Z,15.90
2018-07-06T23:10:34.514Z,15.90
2018-07-06T23:13:03.818Z,15.80
2018-07-06T23:15:33.030Z,15.80
2018-07-06T23:18:02.242Z,15.80
2018-07-06T23:20:31.492Z,15.80
2018-07-06T23:23:06.024Z,15.80
2018-07-06T23:25:36.486Z,15.80
2018-07-06T23:28:05.788Z,15.80
2018-07-06T23:30:35.054Z,15.80
2018-07-06T23:33:05.080Z,15.80
2018-07-06T23:35:34.399Z,15.90
2018-07-06T23:38:03.618Z,15.90
2018-07-06T23:40:32.819Z,15.90
2018-07-06T23:43:01.990Z,15.90
2018-07-06T23:45:31.195Z,15.90
2018-07-06T23:48:00.376Z,15.80
2018-07-06T23:50:29.566Z,15.80
2018-07-06T23:52:58.779Z,15.80
2018-07-06T23:55:27.981Z,15.70
2018-07-06T23:57:57.183Z,15.70
